Estación de Algarrobo Bajo INIA

Ultimos registro cada 15 minutos 67
Estación Fecha / Hora Temperatura Humedad Lluvia Velocidad Dirección Radiación Presion
67 Algarrobo Bajo INIA 06-05-2026 16:30 20,4 64,5 0 3,8 0 179 0
66 Algarrobo Bajo INIA 06-05-2026 16:15 21,1 62,5 0 3,7 0 273 0
65 Algarrobo Bajo INIA 06-05-2026 16:00 21,4 59,8 0 3,9 0 348 0
64 Algarrobo Bajo INIA 06-05-2026 15:45 21,6 57,6 0 3,4 0 383 0
63 Algarrobo Bajo INIA 06-05-2026 15:30 21,6 58 0 3,8 0 416 0
62 Algarrobo Bajo INIA 06-05-2026 15:15 22,1 56,2 0 3,9 0 446 0
61 Algarrobo Bajo INIA 06-05-2026 15:00 22,6 54,6 0 3,6 0 475 0
60 Algarrobo Bajo INIA 06-05-2026 14:45 23,1 52,4 0 3,4 0 502 0
59 Algarrobo Bajo INIA 06-05-2026 14:30 23,5 49,4 0 3,5 0 524 0
58 Algarrobo Bajo INIA 06-05-2026 14:15 24 47,2 0 2,7 220 544 0
57 Algarrobo Bajo INIA 06-05-2026 14:00 24 44,4 0 2,1 207 562 0
56 Algarrobo Bajo INIA 06-05-2026 13:45 23,8 45 0 2,1 202 576 0
55 Algarrobo Bajo INIA 06-05-2026 13:30 23,2 45 0 1,8 189 586 0
54 Algarrobo Bajo INIA 06-05-2026 13:15 22,4 48,3 0 2,2 206 592 0
53 Algarrobo Bajo INIA 06-05-2026 13:00 22 48,8 0 1,6 200 597 0
52 Algarrobo Bajo INIA 06-05-2026 12:45 21,3 50 0 1,5 197 598 0
51 Algarrobo Bajo INIA 06-05-2026 12:30 20,7 50,2 0 1 198 594 0
50 Algarrobo Bajo INIA 06-05-2026 12:15 20 49,6 0 0,7 204 587 0
49 Algarrobo Bajo INIA 06-05-2026 12:00 18,8 57,7 0 0,4 45 576 0
48 Algarrobo Bajo INIA 06-05-2026 11:45 17,4 65 0 0,8 199 561 0
47 Algarrobo Bajo INIA 06-05-2026 11:30 16,7 68,6 0 0,6 207 543 0
46 Algarrobo Bajo INIA 06-05-2026 11:15 16,5 72 0 0,7 232 523 0
45 Algarrobo Bajo INIA 06-05-2026 11:00 15,4 74,1 0 0,4 23 499 0
44 Algarrobo Bajo INIA 06-05-2026 10:45 14,5 79,1 0 0,5 329 472 0
43 Algarrobo Bajo INIA 06-05-2026 10:30 13,3 86,9 0 0,4 8 362 0
42 Algarrobo Bajo INIA 06-05-2026 10:15 12,5 91,3 0 0,3 35 266 0
41 Algarrobo Bajo INIA 06-05-2026 10:00 12 93,3 0 0,8 48 209 0
40 Algarrobo Bajo INIA 06-05-2026 09:45 11,5 95,1 0 0,1 73 158 0
39 Algarrobo Bajo INIA 06-05-2026 09:30 11,1 95,3 0 0,5 48 111 0
38 Algarrobo Bajo INIA 06-05-2026 09:15 11,1 95,5 0 0,7 42 85 0
37 Algarrobo Bajo INIA 06-05-2026 09:00 11,2 95,9 0 1,6 48 96 0
36 Algarrobo Bajo INIA 06-05-2026 08:45 11,1 96 0 1,5 49 59 0
35 Algarrobo Bajo INIA 06-05-2026 08:30 11,2 95,9 0 0,5 59 26 0
34 Algarrobo Bajo INIA 06-05-2026 08:15 11,2 95,9 0 1,2 50 13 0
33 Algarrobo Bajo INIA 06-05-2026 08:00 11,3 95,7 0 1,1 46 5 0
32 Algarrobo Bajo INIA 06-05-2026 07:45 11,3 95,7 0 0,8 57 4 0
31 Algarrobo Bajo INIA 06-05-2026 07:30 11,3 95,6 0 0,1 39 2 0
30 Algarrobo Bajo INIA 06-05-2026 07:15 11,4 95,5 0 0,4 35 1 0
29 Algarrobo Bajo INIA 06-05-2026 07:00 11,5 95,5 0 1,2 41 0 0
28 Algarrobo Bajo INIA 06-05-2026 06:45 11,6 95,2 0 0,2 47 0 0
27 Algarrobo Bajo INIA 06-05-2026 06:30 11,6 95,2 0 0 33 0 0
26 Algarrobo Bajo INIA 06-05-2026 06:15 11,7 95,3 0 0,6 43 0 0
25 Algarrobo Bajo INIA 06-05-2026 06:00 11,7 94,9 0 0,5 42 0 0
24 Algarrobo Bajo INIA 06-05-2026 05:45 11,8 94,7 0 0 54 0 0
23 Algarrobo Bajo INIA 06-05-2026 05:30 11,9 94,4 0 0 46 0 0
22 Algarrobo Bajo INIA 06-05-2026 05:15 11,9 94,3 0 0,2 47 0 0
21 Algarrobo Bajo INIA 06-05-2026 05:00 12,1 94,1 0 1,2 44 0 0
20 Algarrobo Bajo INIA 06-05-2026 04:45 12,2 93,9 0 1,1 41 0 0
19 Algarrobo Bajo INIA 06-05-2026 04:30 12,3 93,4 0 0,2 40 0 0
18 Algarrobo Bajo INIA 06-05-2026 04:15 12,3 93,1 0 0,1 62 0 0
17 Algarrobo Bajo INIA 06-05-2026 04:00 12,4 93 0 0 17 0 0
16 Algarrobo Bajo INIA 06-05-2026 03:45 12,4 93 0 0,3 18 0 0
15 Algarrobo Bajo INIA 06-05-2026 03:30 12,5 92,6 0 0,6 32 0 0
14 Algarrobo Bajo INIA 06-05-2026 03:15 12,6 92,3 0 0,5 39 0 0
13 Algarrobo Bajo INIA 06-05-2026 03:00 12,7 92,3 0 0,8 43 0 0
12 Algarrobo Bajo INIA 06-05-2026 02:45 12,7 92,2 0 0,1 192 0 0
11 Algarrobo Bajo INIA 06-05-2026 02:30 12,8 91,8 0 0,1 190 0 0
10 Algarrobo Bajo INIA 06-05-2026 02:15 12,8 92 0 0 0 0 0
9 Algarrobo Bajo INIA 06-05-2026 02:00 12,8 91,9 0 0,1 162 0 0
8 Algarrobo Bajo INIA 06-05-2026 01:45 12,8 91,8 0 0,1 187 0 0
7 Algarrobo Bajo INIA 06-05-2026 01:30 12,9 91,4 0 0,4 178 0 0
6 Algarrobo Bajo INIA 06-05-2026 01:15 12,9 91,3 0 0 0 0 0
5 Algarrobo Bajo INIA 06-05-2026 01:00 13 91,2 0 0,2 45 0 0
4 Algarrobo Bajo INIA 06-05-2026 00:45 13 91,1 0 0,4 350 0 0
3 Algarrobo Bajo INIA 06-05-2026 00:30 13 91 0 0 222 0 0
2 Algarrobo Bajo INIA 06-05-2026 00:15 13,1 91,1 0 0 300 0 0
1 Algarrobo Bajo INIA 06-05-2026 00:00 13,1 90,8 0 0,1 302 0 0